createdAt,value
2023-03-06T00:00:17.863Z,-6.24
2023-03-06T00:02:22.938Z,-6.25
2023-03-06T00:04:28.382Z,-6.25
2023-03-06T00:06:33.596Z,-6.26
2023-03-06T00:08:38.980Z,-6.26
2023-03-06T00:10:45.698Z,-6.3
2023-03-06T00:12:50.882Z,-6.27
2023-03-06T00:14:56.190Z,-6.26
2023-03-06T00:17:01.426Z,-6.24
2023-03-06T00:19:06.578Z,-6.26
2023-03-06T00:21:11.852Z,-6.25
2023-03-06T00:23:18.553Z,-6.23
2023-03-06T00:25:23.910Z,-6.21
2023-03-06T00:27:29.160Z,-6.21
2023-03-06T00:29:34.582Z,-6.18
2023-03-06T00:31:39.809Z,-6.18
2023-03-06T00:33:45.676Z,-6.17
2023-03-06T00:35:51.494Z,-6.16
2023-03-06T00:37:57.127Z,-6.15
2023-03-06T00:40:02.368Z,-6.15
2023-03-06T00:42:07.858Z,-6.14
2023-03-06T00:44:13.097Z,-6.13
2023-03-06T00:46:18.468Z,-6.11
2023-03-06T00:48:23.919Z,-6.09
2023-03-06T00:50:29.225Z,-6.1
2023-03-06T00:52:34.506Z,-6.1
2023-03-06T00:54:39.758Z,-6.08
2023-03-06T00:56:44.916Z,-6.07
2023-03-06T00:58:50.309Z,-6.08
2023-03-06T01:00:56.616Z,-6.07
2023-03-06T01:03:02.707Z,-6.11
2023-03-06T01:05:08.136Z,-6.09
2023-03-06T01:07:13.402Z,-6.07
2023-03-06T01:09:18.545Z,-6.09
2023-03-06T01:11:23.842Z,-6.11
2023-03-06T01:13:28.956Z,-6.1
2023-03-06T01:15:34.049Z,-6.06
2023-03-06T01:17:39.590Z,-6.03
2023-03-06T01:19:44.694Z,-5.95
2023-03-06T01:21:51.065Z,-5.9
2023-03-06T01:23:56.370Z,-5.93
2023-03-06T01:26:01.644Z,-5.99
2023-03-06T01:28:07.015Z,-6.05
2023-03-06T01:30:12.509Z,-6.09
2023-03-06T01:32:18.073Z,-6.11
2023-03-06T01:34:23.443Z,-6.1
2023-03-06T01:36:28.816Z,-6.14
2023-03-06T01:38:33.985Z,-6.22
2023-03-06T01:40:39.389Z,-6.22
2023-03-06T01:42:46.727Z,-6.3
2023-03-06T01:44:52.388Z,-6.41
2023-03-06T01:46:57.921Z,-6.49
2023-03-06T01:49:03.043Z,-6.61
2023-03-06T01:51:08.296Z,-6.71
2023-03-06T01:53:13.583Z,-6.84
2023-03-06T01:55:18.872Z,-7.02
2023-03-06T01:57:24.309Z,-7.2
2023-03-06T01:59:29.809Z,-7.37
2023-03-06T02:01:35.276Z,-7.51
2023-03-06T02:03:41.510Z,-7.58
2023-03-06T02:05:46.850Z,-7.62
2023-03-06T02:07:52.046Z,-7.72
2023-03-06T02:09:57.518Z,-7.78
2023-03-06T02:12:02.839Z,-7.78
2023-03-06T02:14:08.157Z,-7.89
2023-03-06T02:16:13.670Z,-7.97
2023-03-06T02:18:18.951Z,-7.99
2023-03-06T02:20:24.254Z,-7.89
2023-03-06T02:22:29.614Z,-8
2023-03-06T02:24:34.821Z,-8.08
2023-03-06T02:26:40.026Z,-8.12
2023-03-06T02:28:45.274Z,-8.2
2023-03-06T02:30:50.876Z,-8.32
2023-03-06T02:32:56.621Z,-8.43
2023-03-06T02:35:01.838Z,-8.37
2023-03-06T02:37:07.025Z,-8.36
2023-03-06T02:39:12.336Z,-8.41
2023-03-06T02:41:17.556Z,-8.48
2023-03-06T02:43:22.701Z,-8.55
2023-03-06T02:45:27.866Z,-8.46
2023-03-06T02:47:33.347Z,-8.5
2023-03-06T02:49:38.689Z,-8.51
2023-03-06T02:51:44.253Z,-8.52
2023-03-06T02:53:49.401Z,-8.52
2023-03-06T02:55:54.870Z,-8.62
2023-03-06T02:58:00.442Z,-8.72
2023-03-06T03:00:05.716Z,-8.82
2023-03-06T03:02:10.799Z,-8.89
2023-03-06T03:04:16.382Z,-8.92
2023-03-06T03:06:21.776Z,-8.99
2023-03-06T03:08:27.211Z,-9.04
2023-03-06T03:10:32.644Z,-9.11
2023-03-06T03:12:37.957Z,-9.12
2023-03-06T03:14:42.988Z,-9.12
2023-03-06T03:16:48.145Z,-9.15
2023-03-06T03:18:53.272Z,-9.1
2023-03-06T03:20:58.552Z,-9.15
2023-03-06T03:23:03.781Z,-9.18
2023-03-06T03:25:08.934Z,-9.2
2023-03-06T03:27:13.977Z,-9.3
2023-03-06T03:29:19.197Z,-9.26
2023-03-06T03:31:24.407Z,-9.27
2023-03-06T03:33:29.696Z,-9.3
2023-03-06T03:35:37.907Z,-9.28
2023-03-06T03:37:43.123Z,-9.32
2023-03-06T03:39:48.522Z,-9.33
2023-03-06T03:41:54.037Z,-9.3
2023-03-06T03:43:59.436Z,-9.38
2023-03-06T03:46:04.724Z,-9.39
2023-03-06T03:48:10.414Z,-9.44
2023-03-06T03:50:15.677Z,-9.53
2023-03-06T03:52:20.727Z,-9.49
2023-03-06T03:54:25.993Z,-9.55
2023-03-06T03:56:31.420Z,-9.45
2023-03-06T03:58:36.835Z,-9.46
2023-03-06T04:00:41.801Z,-9.49
2023-03-06T04:02:47.129Z,-9.54
2023-03-06T04:04:52.394Z,-9.6
2023-03-06T04:06:58.160Z,-9.66
2023-03-06T04:09:03.434Z,-9.64
2023-03-06T04:11:08.869Z,-9.56
2023-03-06T04:13:15.199Z,-9.4
2023-03-06T04:15:20.364Z,-9.32
2023-03-06T04:17:25.699Z,-9.37
2023-03-06T04:19:30.915Z,-9.32
2023-03-06T04:21:37.247Z,-9.36
2023-03-06T04:23:42.546Z,-9.46
2023-03-06T04:25:47.779Z,-9.53
2023-03-06T04:27:52.996Z,-9.5
2023-03-06T04:29:59.261Z,-9.64
2023-03-06T04:32:04.594Z,-9.77
2023-03-06T04:34:09.987Z,-9.79
2023-03-06T04:36:15.165Z,-9.77
2023-03-06T04:38:20.418Z,-9.64
2023-03-06T04:40:25.686Z,-9.42
2023-03-06T04:42:31.325Z,-9.37
2023-03-06T04:44:36.726Z,-9.3
2023-03-06T04:46:41.980Z,-9.41
2023-03-06T04:48:47.118Z,-9.54
2023-03-06T04:50:52.697Z,-9.65
2023-03-06T04:52:57.995Z,-9.69
2023-03-06T04:55:03.730Z,-9.61
2023-03-06T04:57:08.966Z,-9.7
2023-03-06T04:59:14.176Z,-9.81
2023-03-06T05:01:19.481Z,-9.9
2023-03-06T05:03:25.110Z,-9.98
2023-03-06T05:05:30.456Z,-10.06
2023-03-06T05:07:35.690Z,-10.14
2023-03-06T05:09:41.153Z,-10.23
2023-03-06T05:11:46.324Z,-10.3
2023-03-06T05:13:51.826Z,-10.36
2023-03-06T05:15:56.990Z,-10.39
2023-03-06T05:18:02.551Z,-10.36
2023-03-06T05:20:07.717Z,-10.45
2023-03-06T05:22:13.060Z,-10.45
2023-03-06T05:24:18.480Z,-10.47
2023-03-06T05:26:23.789Z,-10.36
2023-03-06T05:28:29.033Z,-10.35
2023-03-06T05:30:34.375Z,-10.32
2023-03-06T05:32:39.878Z,-10.19
2023-03-06T05:34:45.569Z,-10.07
2023-03-06T05:36:50.999Z,-10.02
2023-03-06T05:38:56.369Z,-9.97
2023-03-06T05:41:01.945Z,-9.96
2023-03-06T05:43:07.178Z,-9.96
2023-03-06T05:45:12.418Z,-9.94
2023-03-06T05:47:17.830Z,-9.87
2023-03-06T05:49:23.307Z,-9.75
2023-03-06T05:51:28.432Z,-9.73
2023-03-06T05:53:33.866Z,-9.7
2023-03-06T05:55:39.702Z,-9.6
2023-03-06T05:57:45.120Z,-9.47
2023-03-06T05:59:50.566Z,-9.41
2023-03-06T06:01:56.111Z,-9.35
2023-03-06T06:04:01.745Z,-9.26
2023-03-06T06:06:06.942Z,-8.91
2023-03-06T06:08:12.191Z,-8.38
2023-03-06T06:10:18.358Z,-7.92
2023-03-06T06:12:23.712Z,-7.62
2023-03-06T06:14:28.818Z,-7.51
2023-03-06T06:16:34.192Z,-7.26
2023-03-06T06:18:41.204Z,-7.08
2023-03-06T06:20:46.931Z,-6.91
2023-03-06T06:22:52.292Z,-6.87
2023-03-06T06:24:57.695Z,-6.79
2023-03-06T06:27:04.013Z,-6.68
2023-03-06T06:29:09.484Z,-6.63
2023-03-06T06:31:15.088Z,-6.62
2023-03-06T06:33:20.769Z,-6.47
2023-03-06T06:35:26.182Z,-6.38
2023-03-06T06:37:31.748Z,-6.31
2023-03-06T06:39:37.515Z,-6.21
2023-03-06T06:41:57.188Z,-6.16
2023-03-06T06:44:41.915Z,-5.92
2023-03-06T06:49:28.965Z,-5.83
2023-03-06T06:51:34.390Z,-5.63
2023-03-06T06:53:39.573Z,-5.51
2023-03-06T06:55:45.183Z,-5.41
2023-03-06T06:57:50.573Z,-5.28
2023-03-06T06:59:56.135Z,-5.01
2023-03-06T07:02:01.470Z,-4.8
2023-03-06T07:04:06.811Z,-4.53
2023-03-06T07:06:13.034Z,-4.29
2023-03-06T07:08:18.546Z,-4.04
2023-03-06T07:10:23.924Z,-3.81
2023-03-06T07:12:29.273Z,-3.57
2023-03-06T07:14:35.002Z,-3.62
2023-03-06T07:16:40.178Z,-3.59
2023-03-06T07:18:45.676Z,-3.41
2023-03-06T07:20:50.937Z,-3.36
2023-03-06T07:22:56.311Z,-3.38
2023-03-06T07:25:01.553Z,-3.26
2023-03-06T07:27:07.366Z,-3.09
2023-03-06T07:29:12.795Z,-3.05
2023-03-06T07:31:18.203Z,-3.08
2023-03-06T07:33:23.692Z,-3.25
2023-03-06T07:35:29.504Z,-3.21
2023-03-06T07:37:34.986Z,-3.18
2023-03-06T07:39:40.358Z,-2.91
2023-03-06T07:41:45.571Z,-2.91
2023-03-06T07:43:51.034Z,-2.81
2023-03-06T07:45:56.360Z,-2.57
2023-03-06T07:48:01.743Z,-2.51
2023-03-06T07:50:09.857Z,-2.34
2023-03-06T07:52:18.398Z,-2.42
2023-03-06T07:54:23.461Z,-1.92
2023-03-06T07:56:28.707Z,-1.83
2023-03-06T07:58:33.929Z,-1.62
2023-03-06T08:00:39.289Z,-1.74
2023-03-06T08:02:45.072Z,-1.96
2023-03-06T08:04:50.718Z,-2.03
2023-03-06T08:06:56.064Z,-1.94
2023-03-06T08:09:01.675Z,-1.59
2023-03-06T08:11:06.973Z,-1.64
2023-03-06T08:13:12.185Z,-1.26
2023-03-06T08:15:17.585Z,-0.93
2023-03-06T08:17:22.814Z,-0.8
2023-03-06T08:19:28.269Z,-0.83
2023-03-06T08:21:33.873Z,-0.76
2023-03-06T08:23:39.331Z,-0.95
2023-03-06T08:25:44.840Z,-0.97
2023-03-06T08:27:50.237Z,-0.48
2023-03-06T08:29:56.187Z,-0.75
2023-03-06T08:32:01.812Z,-0.89
2023-03-06T08:34:07.223Z,-0.8
2023-03-06T08:36:12.721Z,-0.76
2023-03-06T08:38:18.157Z,-0.48
2023-03-06T08:40:23.836Z,-0.42
2023-03-06T08:42:29.488Z,-0.5
2023-03-06T08:44:35.950Z,-0.52
2023-03-06T08:46:41.603Z,-0.54
2023-03-06T08:48:47.100Z,-0.9
2023-03-06T08:50:52.608Z,-0.8
2023-03-06T08:53:01.473Z,-0.5
2023-03-06T08:55:06.897Z,-0.24
2023-03-06T08:57:12.192Z,-0.63
2023-03-06T08:59:20.375Z,-0.49
2023-03-06T09:01:26.027Z,-0.02
2023-03-06T09:03:31.628Z,-0.01
2023-03-06T09:05:37.096Z,-0.11
2023-03-06T09:07:42.314Z,-0.25
2023-03-06T09:09:47.555Z,-0.1
2023-03-06T09:11:52.821Z,0.08
2023-03-06T09:13:58.675Z,0.18
2023-03-06T09:16:04.162Z,0.05
2023-03-06T09:18:09.908Z,-0.04
2023-03-06T09:20:15.572Z,-0.12
2023-03-06T09:22:21.238Z,0.14
2023-03-06T09:24:26.439Z,0.43
2023-03-06T09:26:44.913Z,0.13
2023-03-06T09:28:54.727Z,0.37
2023-03-06T09:31:00.301Z,0.78
2023-03-06T09:33:06.308Z,0.46
2023-03-06T09:35:11.676Z,0.07
2023-03-06T09:37:17.461Z,0.28
2023-03-06T09:39:23.188Z,0.45
2023-03-06T09:41:28.876Z,0.84
2023-03-06T09:43:35.360Z,0.75
2023-03-06T09:45:40.770Z,0.46
2023-03-06T09:47:46.659Z,0.47
2023-03-06T09:49:52.123Z,0.63
2023-03-06T09:51:57.530Z,0.62
2023-03-06T09:54:02.951Z,0.58
2023-03-06T09:56:08.204Z,0.71
2023-03-06T09:58:13.749Z,0.46
2023-03-06T10:00:19.146Z,0.39
2023-03-06T10:02:25.417Z,0.39
2023-03-06T10:04:31.991Z,0.22
2023-03-06T10:06:37.845Z,0.27
2023-03-06T10:08:42.993Z,0.26
2023-03-06T10:10:48.433Z,0.27
2023-03-06T10:12:53.665Z,0.31
2023-03-06T10:15:00.098Z,0.43
2023-03-06T10:17:05.469Z,0
2023-03-06T10:19:11.087Z,-0.13
2023-03-06T10:21:19.204Z,-0.19
2023-03-06T10:23:24.869Z,-0.43
2023-03-06T10:25:30.252Z,-0.61
2023-03-06T10:27:36.857Z,-0.76
2023-03-06T10:29:47.510Z,-0.54
2023-03-06T10:32:07.541Z,-0.5
2023-03-06T10:34:13.334Z,-0.49
2023-03-06T10:36:18.658Z,-0.25
2023-03-06T10:38:24.053Z,-0.02
2023-03-06T10:40:29.460Z,-0.12
2023-03-06T10:42:34.657Z,-0.28
2023-03-06T10:44:40.058Z,-0.16
2023-03-06T10:46:45.638Z,0.22
2023-03-06T10:48:51.349Z,0.46
2023-03-06T10:50:56.590Z,0.45
2023-03-06T10:53:19.794Z,0.66
2023-03-06T10:55:25.075Z,0.81
2023-03-06T10:57:30.227Z,0.6
2023-03-06T10:59:35.397Z,0.6
2023-03-06T11:01:40.816Z,0.33
2023-03-06T11:03:46.514Z,0.12
2023-03-06T11:05:51.883Z,0.07
2023-03-06T11:07:57.211Z,0.14
2023-03-06T11:10:02.635Z,0.35
2023-03-06T11:12:08.021Z,0.3
2023-03-06T11:14:13.406Z,0.27
2023-03-06T11:16:18.763Z,0.43
2023-03-06T11:18:27.634Z,0.38
2023-03-06T11:20:44.870Z,0.1
2023-03-06T11:22:56.749Z,0.22
2023-03-06T11:25:02.613Z,-0.12
2023-03-06T11:27:07.887Z,0.01
2023-03-06T11:29:13.251Z,0.08
2023-03-06T11:31:18.725Z,0.11
2023-03-06T11:33:24.163Z,0.22
2023-03-06T11:35:29.212Z,0.07
2023-03-06T11:37:34.589Z,0.14
2023-03-06T11:39:39.751Z,0.06
2023-03-06T11:41:44.954Z,0.02
2023-03-06T11:43:50.066Z,0.15
2023-03-06T11:45:55.356Z,0.13
2023-03-06T11:48:00.708Z,0.16
2023-03-06T11:50:06.028Z,-0.23
2023-03-06T11:52:11.450Z,-0.15
2023-03-06T11:54:17.605Z,-0.06
2023-03-06T11:56:22.889Z,0.09
2023-03-06T11:58:28.356Z,-0.1
2023-03-06T12:00:33.804Z,-0.12
2023-03-06T12:02:39.046Z,-0.15
2023-03-06T12:04:44.367Z,-0.19
2023-03-06T12:06:50.783Z,-0.28
2023-03-06T12:08:56.058Z,-0.38
2023-03-06T12:11:01.262Z,-0.42
2023-03-06T12:13:06.657Z,-0.35
2023-03-06T12:15:12.012Z,-0.36
2023-03-06T12:17:17.423Z,-0.35
2023-03-06T12:19:22.781Z,-0.21
2023-03-06T12:21:27.946Z,-0.09
2023-03-06T12:23:34.247Z,-0.42
2023-03-06T12:25:39.616Z,-0.39
2023-03-06T12:27:44.836Z,-0.43
2023-03-06T12:29:50.273Z,-0.37
2023-03-06T12:31:55.677Z,-0.47
2023-03-06T12:34:01.464Z,-0.46
2023-03-06T12:36:06.803Z,-0.37
2023-03-06T12:38:13.209Z,-0.31
2023-03-06T12:40:18.726Z,-0.24
2023-03-06T12:42:24.804Z,-0.16
2023-03-06T12:44:31.232Z,-0.14
2023-03-06T12:46:36.489Z,-0.11
2023-03-06T12:48:41.899Z,-0.12
2023-03-06T12:50:47.197Z,-0.03
2023-03-06T12:52:52.477Z,0.07
2023-03-06T12:54:57.889Z,0
2023-03-06T12:57:03.458Z,-0.12
2023-03-06T12:59:08.821Z,-0.04
2023-03-06T13:01:14.060Z,0.01
2023-03-06T13:03:19.596Z,0.16
2023-03-06T13:05:24.916Z,0.17
2023-03-06T13:07:30.182Z,0.2
2023-03-06T13:09:35.388Z,0.12
2023-03-06T13:11:40.587Z,0.05
2023-03-06T13:13:46.100Z,0.15
2023-03-06T13:15:51.501Z,0.22
2023-03-06T13:17:56.656Z,0.19
2023-03-06T13:20:01.932Z,0.32
2023-03-06T13:22:07.378Z,0.37
2023-03-06T13:24:12.694Z,0.29
2023-03-06T13:26:18.727Z,0.43
2023-03-06T13:28:24.174Z,0.37
2023-03-06T13:30:29.903Z,0.49
2023-03-06T13:32:35.673Z,0.36
2023-03-06T13:34:41.102Z,0.4
2023-03-06T13:36:46.837Z,0.43
2023-03-06T13:38:53.004Z,0.29
2023-03-06T13:40:59.408Z,0.34
2023-03-06T13:43:05.939Z,0.36
2023-03-06T13:45:11.133Z,0.53
2023-03-06T13:47:16.346Z,0.71
2023-03-06T13:49:21.790Z,0.86
2023-03-06T13:51:27.202Z,0.76
2023-03-06T13:53:32.527Z,0.81
2023-03-06T13:55:38.481Z,0.67
2023-03-06T13:57:44.955Z,0.66
2023-03-06T13:59:56.961Z,0.57
2023-03-06T14:02:13.654Z,0.58
2023-03-06T14:04:20.639Z,0.68
2023-03-06T14:06:27.293Z,0.76
2023-03-06T14:08:33.117Z,0.92
2023-03-06T14:10:39.921Z,1.02
2023-03-06T14:12:46.017Z,0.92
2023-03-06T14:14:52.459Z,1
2023-03-06T14:17:04.140Z,1.05
2023-03-06T14:19:11.257Z,1.07
2023-03-06T14:21:17.959Z,1.33
2023-03-06T14:23:24.432Z,1.47
2023-03-06T14:25:30.830Z,1.68
2023-03-06T14:27:40.335Z,1.7
2023-03-06T14:29:47.262Z,1.99
2023-03-06T14:31:53.822Z,1.97
2023-03-06T14:34:00.495Z,1.79
2023-03-06T14:36:10.683Z,1.85
2023-03-06T14:38:17.336Z,1.96
2023-03-06T14:40:23.536Z,1.84
2023-03-06T14:42:29.753Z,1.88
2023-03-06T14:44:36.358Z,1.91
2023-03-06T14:46:42.543Z,1.76
2023-03-06T14:48:48.822Z,1.86
2023-03-06T14:50:55.102Z,1.78
2023-03-06T14:53:02.073Z,1.77
2023-03-06T14:55:08.629Z,1.75
2023-03-06T14:57:15.170Z,1.72
2023-03-06T14:59:21.859Z,1.64
2023-03-06T15:01:28.087Z,1.54
2023-03-06T15:03:34.321Z,1.51
2023-03-06T15:05:40.172Z,1.54
2023-03-06T15:07:46.215Z,1.53
2023-03-06T15:09:52.377Z,1.51
2023-03-06T15:11:58.697Z,1.49
2023-03-06T15:14:05.085Z,1.54
2023-03-06T15:16:11.864Z,1.51
2023-03-06T15:18:18.653Z,1.49
2023-03-06T15:20:25.140Z,1.48
2023-03-06T15:22:32.312Z,1.49
2023-03-06T15:24:38.692Z,1.49
2023-03-06T15:26:45.479Z,1.45
2023-03-06T15:28:56.838Z,1.39
2023-03-06T15:31:14.974Z,1.37
2023-03-06T15:33:22.270Z,1.35
2023-03-06T15:35:29.010Z,1.41
2023-03-06T15:37:39.394Z,1.4
2023-03-06T15:39:46.290Z,1.26
2023-03-06T15:41:53.236Z,1.2
2023-03-06T15:43:59.470Z,1.21
2023-03-06T15:46:05.867Z,1.22
2023-03-06T15:48:12.600Z,1.3
2023-03-06T15:50:19.376Z,1.28
2023-03-06T15:52:27.190Z,1.26
2023-03-06T15:54:33.867Z,1.25
2023-03-06T15:56:40.488Z,1.2
2023-03-06T15:58:46.707Z,1.19
2023-03-06T16:00:53.621Z,1.16
2023-03-06T16:03:00.207Z,1.14
2023-03-06T16:05:06.816Z,1.06
2023-03-06T16:07:14.086Z,1
2023-03-06T16:09:21.619Z,0.98
2023-03-06T16:11:35.283Z,0.91
2023-03-06T16:13:49.787Z,0.86
2023-03-06T16:15:58.203Z,0.83
2023-03-06T16:18:04.915Z,0.77
2023-03-06T16:20:12.444Z,0.75
2023-03-06T16:22:20.245Z,0.71
2023-03-06T16:24:27.435Z,0.69
2023-03-06T16:26:34.531Z,0.65
2023-03-06T16:28:42.703Z,0.6
2023-03-06T16:30:49.606Z,0.57
2023-03-06T16:32:56.895Z,0.58
2023-03-06T16:35:03.254Z,0.57
2023-03-06T16:37:12.453Z,0.56
2023-03-06T16:39:22.478Z,0.53
2023-03-06T16:41:28.994Z,0.46
2023-03-06T16:43:37.661Z,0.45
2023-03-06T16:45:45.953Z,0.46
2023-03-06T16:47:55.205Z,0.43
2023-03-06T16:50:05.804Z,0.44
2023-03-06T16:52:13.462Z,0.43
2023-03-06T16:54:20.134Z,0.4
2023-03-06T16:56:27.142Z,0.41
2023-03-06T16:58:34.238Z,0.4
2023-03-06T17:00:40.775Z,0.4
2023-03-06T17:02:50.404Z,0.38
2023-03-06T17:04:58.716Z,0.37
2023-03-06T17:07:06.944Z,0.36
2023-03-06T17:09:17.119Z,0.3
2023-03-06T17:11:25.266Z,0.27
2023-03-06T17:13:31.662Z,0.28
2023-03-06T17:15:39.385Z,0.28
2023-03-06T17:17:47.903Z,0.28
2023-03-06T17:19:55.594Z,0.27
2023-03-06T17:22:03.439Z,0.29
2023-03-06T17:24:12.199Z,0.28
2023-03-06T17:26:19.568Z,0.24
2023-03-06T17:28:27.118Z,0.23
2023-03-06T17:30:34.901Z,0.22
2023-03-06T17:32:42.697Z,0.26
2023-03-06T17:34:51.411Z,0.27
2023-03-06T17:36:59.534Z,0.27
2023-03-06T17:39:09.695Z,0.26
2023-03-06T17:41:16.122Z,0.26
2023-03-06T17:43:22.885Z,0.27
2023-03-06T17:45:32.383Z,0.26
2023-03-06T17:47:42.084Z,0.27
2023-03-06T17:49:54.383Z,0.26
2023-03-06T17:52:03.048Z,0.26
2023-03-06T17:54:11.015Z,0.22
2023-03-06T17:56:19.327Z,0.22
2023-03-06T17:58:34.104Z,0.25
2023-03-06T18:00:48.150Z,0.26
2023-03-06T18:02:56.727Z,0.23
2023-03-06T18:05:11.843Z,0.22
2023-03-06T18:07:23.684Z,0.22
2023-03-06T18:09:33.165Z,0.18
2023-03-06T18:11:42.549Z,0.22
2023-03-06T18:13:51.068Z,0.24
2023-03-06T18:16:00.444Z,0.23
2023-03-06T18:18:08.354Z,0.19
2023-03-06T18:20:17.048Z,0.21
2023-03-06T18:22:25.753Z,0.21
2023-03-06T18:24:36.440Z,0.2
2023-03-06T18:26:47.616Z,0.22
2023-03-06T18:28:58.082Z,0.27
2023-03-06T18:31:07.411Z,0.28
2023-03-06T18:33:16.053Z,0.27
2023-03-06T18:35:24.617Z,0.28
2023-03-06T18:37:38.234Z,0.28
2023-03-06T18:39:53.501Z,0.28
2023-03-06T18:42:03.187Z,0.27
2023-03-06T18:44:13.217Z,0.23
2023-03-06T18:46:26.228Z,0.23
2023-03-06T18:48:34.297Z,0.17
2023-03-06T18:50:46.394Z,0.16
2023-03-06T18:52:58.741Z,0.15
2023-03-06T18:55:10.065Z,0.18
2023-03-06T18:57:21.996Z,0.19
2023-03-06T18:59:33.665Z,0.2
2023-03-06T19:01:47.481Z,0.22
2023-03-06T19:04:00.545Z,0.22
2023-03-06T19:06:14.278Z,0.22
2023-03-06T19:08:23.568Z,0.2
2023-03-06T19:10:31.800Z,0.22
2023-03-06T19:12:47.524Z,0.16
2023-03-06T19:15:06.681Z,0.15
2023-03-06T19:17:23.461Z,0.15
2023-03-06T19:19:36.153Z,0.17
2023-03-06T19:21:46.341Z,0.18
2023-03-06T19:23:55.316Z,0.17
2023-03-06T19:26:05.395Z,0.16
2023-03-06T19:28:16.722Z,0.15
2023-03-06T19:30:29.667Z,0.16
2023-03-06T19:32:41.334Z,0.17
2023-03-06T19:34:56.816Z,0.14
2023-03-06T19:37:07.849Z,0.16
2023-03-06T19:39:17.946Z,0.2
2023-03-06T19:41:34.986Z,0.16
2023-03-06T19:43:47.731Z,0.16
2023-03-06T19:45:59.622Z,0.17
2023-03-06T19:48:10.633Z,0.17
2023-03-06T19:50:26.467Z,0.17
2023-03-06T19:52:40.873Z,0.2
2023-03-06T19:54:51.369Z,0.2
2023-03-06T19:57:04.184Z,0.2
2023-03-06T19:59:29.829Z,0.2
2023-03-06T20:01:46.056Z,0.21
2023-03-06T20:04:03.760Z,0.2
2023-03-06T20:06:14.126Z,0.23
2023-03-06T20:08:26.636Z,0.2
2023-03-06T20:10:36.716Z,0.18
2023-03-06T20:12:51.370Z,0.18
2023-03-06T20:15:02.541Z,0.2
2023-03-06T20:17:15.040Z,0.2
2023-03-06T20:19:30.710Z,0.18
2023-03-06T20:21:45.899Z,0.17
2023-03-06T20:23:57.185Z,0.17
2023-03-06T20:26:07.588Z,0.16
2023-03-06T20:28:18.964Z,0.16
2023-03-06T20:30:37.677Z,0.16
2023-03-06T20:32:51.864Z,0.17
2023-03-06T20:35:02.820Z,0.15
2023-03-06T20:37:14.826Z,0.12
2023-03-06T20:39:23.594Z,0.12
2023-03-06T20:41:42.859Z,0.11
2023-03-06T20:43:53.417Z,0.11
2023-03-06T20:46:04.833Z,0.12
2023-03-06T20:48:15.226Z,0.13
2023-03-06T20:50:23.831Z,0.15
2023-03-06T20:52:34.684Z,0.15
2023-03-06T20:54:48.555Z,0.14
2023-03-06T20:56:58.377Z,0.15
2023-03-06T20:59:07.036Z,0.15
2023-03-06T21:01:18.129Z,0.16
2023-03-06T21:03:26.699Z,0.16
2023-03-06T21:05:34.626Z,0.15
2023-03-06T21:07:41.801Z,0.17
2023-03-06T21:09:52.126Z,0.13
2023-03-06T21:12:00.122Z,0.08
2023-03-06T21:14:10.807Z,0.03
2023-03-06T21:16:19.476Z,-0.06
2023-03-06T21:18:28.601Z,-0.13
2023-03-06T21:20:36.241Z,-0.16
2023-03-06T21:22:44.478Z,-0.22
2023-03-06T21:24:52.625Z,-0.34
2023-03-06T21:27:01.374Z,-0.38
2023-03-06T21:29:09.387Z,-0.37
2023-03-06T21:31:15.093Z,-0.4
2023-03-06T21:33:21.583Z,-0.41
2023-03-06T21:35:31.110Z,-0.47
2023-03-06T21:37:37.686Z,-0.53
2023-03-06T21:39:44.299Z,-0.58
2023-03-06T21:41:50.915Z,-0.61
2023-03-06T21:43:56.783Z,-0.64
2023-03-06T21:46:03.017Z,-0.6
2023-03-06T21:48:09.080Z,-0.61
2023-03-06T21:50:14.886Z,-0.6
2023-03-06T21:52:20.748Z,-0.59
2023-03-06T21:54:31.780Z,-0.57
2023-03-06T21:56:37.345Z,-0.58
2023-03-06T21:58:43.181Z,-0.57
2023-03-06T22:00:49.632Z,-0.55
2023-03-06T22:02:55.114Z,-0.55
2023-03-06T22:05:00.805Z,-0.55
2023-03-06T22:07:06.220Z,-0.53
2023-03-06T22:09:12.192Z,-0.54
2023-03-06T22:11:17.971Z,-0.52
2023-03-06T22:13:23.671Z,-0.5
2023-03-06T22:15:29.212Z,-0.52
2023-03-06T22:17:34.757Z,-0.53
2023-03-06T22:19:39.907Z,-0.56
2023-03-06T22:21:45.729Z,-0.53
2023-03-06T22:23:51.331Z,-0.55
2023-03-06T22:25:56.831Z,-0.54
2023-03-06T22:28:01.954Z,-0.57
2023-03-06T22:30:07.742Z,-0.58
2023-03-06T22:32:13.492Z,-0.61
2023-03-06T22:34:19.370Z,-0.61
2023-03-06T22:36:25.221Z,-0.59
2023-03-06T22:38:30.758Z,-0.62
2023-03-06T22:40:36.414Z,-0.64
2023-03-06T22:42:41.494Z,-0.67
2023-03-06T22:44:47.478Z,-0.69
2023-03-06T22:46:53.144Z,-0.71
2023-03-06T22:48:58.898Z,-0.73
2023-03-06T22:51:04.448Z,-0.71
2023-03-06T22:53:10.111Z,-0.72
2023-03-06T22:55:15.797Z,-0.73
2023-03-06T22:57:21.607Z,-0.76
2023-03-06T22:59:27.316Z,-0.75
2023-03-06T23:01:32.756Z,-0.78
2023-03-06T23:03:38.399Z,-0.79
2023-03-06T23:05:43.836Z,-0.79
2023-03-06T23:07:49.532Z,-0.79
2023-03-06T23:09:55.240Z,-0.82
2023-03-06T23:12:00.767Z,-0.8
2023-03-06T23:14:06.504Z,-0.81
2023-03-06T23:16:12.352Z,-0.81
2023-03-06T23:18:17.937Z,-0.81
2023-03-06T23:20:23.408Z,-0.82
2023-03-06T23:22:28.747Z,-0.8
2023-03-06T23:24:36.220Z,-0.81
2023-03-06T23:26:41.610Z,-0.81
2023-03-06T23:28:47.256Z,-0.8
2023-03-06T23:30:52.657Z,-0.81
2023-03-06T23:32:58.271Z,-0.81
2023-03-06T23:35:03.735Z,-0.83
2023-03-06T23:37:09.346Z,-0.84
2023-03-06T23:39:14.805Z,-0.87
2023-03-06T23:41:20.383Z,-0.87
2023-03-06T23:43:25.560Z,-0.87
2023-03-06T23:45:31.035Z,-0.9
2023-03-06T23:47:36.559Z,-0.9
2023-03-06T23:49:42.447Z,-0.93
2023-03-06T23:51:48.241Z,-0.98
2023-03-06T23:53:53.867Z,-1
2023-03-06T23:55:59.437Z,-1.03
2023-03-06T23:58:04.698Z,-1.12
